Widecreek, Kentucky
Current Conditions -  °F | °C
As of 8:53 PM on Wednesday 17 Dec 2014 (Local Time) from KJKL Reporting Station
Clear Clear  
Wind Chill: 30°   Ceiling: Unl
Heat Index: 30°   Visibility: 10mi
Dew Point: 24°   Wind: 3mph
Humidity: 79%   Direction: 260°W
Pressure: 30.21"   Gusts: NA
Location:  37.5908°N, 83.7186°W
Report Text: KJKL 180153Z AUTO 26003KT 10SM CLR M01/M04 A3021 RMK AO2 SLP241 T10111044
Loading
Personal Weather Stations






























Interactive Weather Map New forecast layout! Learn more

10-Day Weather Forecast

Advertisements
Track Severe Weather on mobile